Portada
METAR-TAF:

METAR-TAF

Aeropuertos :

Colmenar Viejo, España

latitud: 40-39N, longitud: 003-44W, altitud: -999 m

Observación

El informe se hizo hace 11 horas y 29 minutos, a las 18:00 UTC
Viento 4 kt del norte-noroeste
Temperatura 27°C
Humedad 23%
Presión 1025 hPa
Visibilidad 10 km o más
sin nubes por debajo de 1500 m y sin presencia de cumulonimbus.

METAR: LECV 231800Z 34004KT CAVOK 27/04 Q1025

Hora: 07:29 (05:29 UTC)

Pronóstico

El informe se hizo hace 12 horas y 29 minutos, a las 17:00 UTC
Pronóstico válido del 23 a las 18 UTC al 24 a las 03 UTC
Viento 4 kt con dirección variable
Visibilidad 10 km o más
sin nubes por debajo de 1500 m y sin presencia de cumulonimbus.
Evolucionando progresivamente
del 23 a las 18 UTC al 23 a las 20 UTC
Viento 10 kt del noreste

TAF: LECV 231700Z 2318/2403 VRB04KT CAVOK BECMG 2318/2320 04010KT

Observaciones y pronósticos meteorológicos de más de 4000 aeropuertos (mensajes METAR y TAF).

Los puntos amarillos y rojos representan las estaciones disponibles.

Ponga el ratón en el punto deseado para ver el nombre de la estación.

Haga clic para ver las observaciones y los pronósticos meteorológicos.

Para cambiar el mapa : haga clic en los botones verdes con una cruz de color negro para hacer un zoom, en el botón verde con un guión para alejar o en las flechas verdes para mapas adyacentes.


METAR-TAF: